createdAt,value
2023-02-14T00:01:12.864Z,14.05
2023-02-14T00:03:39.890Z,12.48
2023-02-14T00:06:12.368Z,13.25
2023-02-14T00:08:40.997Z,14.80
2023-02-14T00:11:09.035Z,13.13
2023-02-14T00:13:36.286Z,12.95
2023-02-14T00:16:03.686Z,13.70
2023-02-14T00:19:08.848Z,14.55
2023-02-14T00:21:37.657Z,13.80
2023-02-14T00:24:07.108Z,14.27
2023-02-14T00:26:34.444Z,14.60
2023-02-14T00:29:01.305Z,13.80
2023-02-14T00:31:28.256Z,14.13
2023-02-14T00:33:55.125Z,15.32
2023-02-14T00:36:22.106Z,14.52
2023-02-14T00:38:48.871Z,13.95
2023-02-14T00:41:19.317Z,14.70
2023-02-14T00:43:51.293Z,14.90
2023-02-14T00:46:19.905Z,15.17
2023-02-14T00:48:47.107Z,13.95
2023-02-14T00:51:15.268Z,15.38
2023-02-14T00:53:42.240Z,13.90
2023-02-14T00:56:09.052Z,14.07
2023-02-14T00:58:35.993Z,15.15
2023-02-14T01:01:03.002Z,14.57
2023-02-14T01:03:29.987Z,14.90
2023-02-14T01:05:56.880Z,16.02
2023-02-14T01:08:24.490Z,15.05
2023-02-14T01:10:51.360Z,14.77
2023-02-14T01:13:18.832Z,14.52
2023-02-14T01:15:48.949Z,14.05
2023-02-14T01:18:17.044Z,14.43
2023-02-14T01:20:44.278Z,14.35
2023-02-14T01:23:11.399Z,14.30
2023-02-14T01:25:39.358Z,15.38
2023-02-14T01:28:07.036Z,15.02
2023-02-14T01:30:33.850Z,15.40
2023-02-14T01:33:00.643Z,15.55
2023-02-14T01:35:27.451Z,14.57
2023-02-14T01:37:54.935Z,14.52
2023-02-14T01:40:21.868Z,15.15
2023-02-14T01:42:48.684Z,14.82
2023-02-14T01:45:23.185Z,14.45
2023-02-14T01:47:54.559Z,14.13
2023-02-14T01:50:26.586Z,15.18
2023-02-14T01:53:00.928Z,14.60
2023-02-14T01:55:31.778Z,15.32
2023-02-14T01:58:04.974Z,14.82
2023-02-14T02:00:50.579Z,16.15
2023-02-14T02:03:19.507Z,14.40
2023-02-14T02:05:50.224Z,15.88
2023-02-14T02:08:17.647Z,15.52
2023-02-14T02:10:44.451Z,15.85
2023-02-14T02:13:17.759Z,14.63
2023-02-14T02:16:15.567Z,15.52
2023-02-14T02:19:01.289Z,15.32
2023-02-14T02:21:40.176Z,14.77
2023-02-14T02:24:18.819Z,15.18
2023-02-14T02:27:13.156Z,15.98
2023-02-14T02:29:41.139Z,15.15
2023-02-14T02:32:30.305Z,16.05
2023-02-14T02:35:15.988Z,15.85
2023-02-14T02:37:51.142Z,16.20
2023-02-14T02:40:36.596Z,16.73
2023-02-14T02:43:37.494Z,17.05
2023-02-14T02:46:44.743Z,17.00
2023-02-14T02:49:40.704Z,16.63
2023-02-14T02:52:40.232Z,16.73
2023-02-14T02:55:30.598Z,17.00
2023-02-14T02:57:58.454Z,18.15
2023-02-14T03:00:25.495Z,17.30
2023-02-14T03:03:15.531Z,18.27
2023-02-14T03:05:43.196Z,17.15
2023-02-14T03:08:09.948Z,18.38
2023-02-14T03:10:39.323Z,18.02
2023-02-14T03:13:37.802Z,19.42
2023-02-14T03:16:32.294Z,17.85
2023-02-14T03:19:22.818Z,17.42
2023-02-14T03:22:01.144Z,19.05
2023-02-14T03:24:40.540Z,18.73
2023-02-14T03:27:23.181Z,18.38
2023-02-14T03:30:13.756Z,17.00
2023-02-14T03:33:00.347Z,18.67
2023-02-14T03:35:42.577Z,17.92
2023-02-14T03:38:20.601Z,17.92
2023-02-14T03:41:01.250Z,18.13
2023-02-14T03:43:42.998Z,17.88
2023-02-14T03:46:45.414Z,17.75
2023-02-14T03:49:17.653Z,19.05
2023-02-14T03:51:49.057Z,18.45
2023-02-14T03:54:17.716Z,18.80
2023-02-14T03:57:18.777Z,17.75
2023-02-14T03:59:46.110Z,19.17
2023-02-14T04:02:24.503Z,19.80
2023-02-14T04:04:53.150Z,19.02
2023-02-14T04:07:22.852Z,20.70
2023-02-14T04:09:50.261Z,21.45
2023-02-14T04:12:23.895Z,21.30
2023-02-14T04:14:56.084Z,20.00
2023-02-14T04:17:41.327Z,21.50
2023-02-14T04:20:08.402Z,22.33
2023-02-14T04:22:35.218Z,22.23
2023-02-14T04:25:02.133Z,21.35
2023-02-14T04:27:28.995Z,23.52
2023-02-14T04:29:55.813Z,22.00
2023-02-14T04:32:23.301Z,22.70
2023-02-14T04:34:50.478Z,23.05
2023-02-14T04:37:19.583Z,24.70
2023-02-14T04:39:46.549Z,23.42
2023-02-14T04:42:13.706Z,24.20
2023-02-14T04:44:40.584Z,24.88
2023-02-14T04:47:08.492Z,24.35
2023-02-14T04:49:36.697Z,24.85
2023-02-14T04:52:04.412Z,26.15
2023-02-14T04:54:31.772Z,25.85
2023-02-14T04:56:58.752Z,26.20
2023-02-14T04:59:26.233Z,27.23
2023-02-14T05:01:54.196Z,27.08
2023-02-14T05:04:21.147Z,27.27
2023-02-14T05:06:47.958Z,27.90
2023-02-14T05:09:14.713Z,28.70
2023-02-14T05:11:41.650Z,28.45
2023-02-14T05:14:08.408Z,27.50
2023-02-14T05:16:35.383Z,27.67
2023-02-14T05:19:02.144Z,28.42
2023-02-14T05:21:33.026Z,28.02
2023-02-14T05:24:00.995Z,31.00
2023-02-14T05:26:28.410Z,30.52
2023-02-14T05:28:55.527Z,29.67
2023-02-14T05:31:22.803Z,30.13
2023-02-14T05:33:49.787Z,29.60
2023-02-14T05:36:16.788Z,31.02
2023-02-14T05:38:43.684Z,32.95
2023-02-14T05:41:10.503Z,31.50
2023-02-14T05:43:37.321Z,31.73
2023-02-14T05:46:04.360Z,31.55
2023-02-14T05:48:31.262Z,33.67
2023-02-14T05:50:58.324Z,35.90
2023-02-14T05:53:25.375Z,33.83
2023-02-14T05:55:52.245Z,33.78
2023-02-14T05:58:19.109Z,34.45
2023-02-14T06:00:46.063Z,34.38
2023-02-14T06:03:12.918Z,34.30
2023-02-14T06:05:40.060Z,34.10
2023-02-14T06:08:06.837Z,35.28
2023-02-14T06:10:33.706Z,33.17
2023-02-14T06:13:00.821Z,33.88
2023-02-14T06:15:27.739Z,34.70
2023-02-14T06:17:57.955Z,33.70
2023-02-14T06:20:25.327Z,35.88
2023-02-14T06:22:52.704Z,34.97
2023-02-14T06:25:20.341Z,35.00
2023-02-14T06:27:49.280Z,36.05
2023-02-14T06:30:18.362Z,34.97
2023-02-14T06:32:45.542Z,34.83
2023-02-14T06:35:13.775Z,35.15
2023-02-14T06:37:42.140Z,35.65
2023-02-14T06:40:10.438Z,35.45
2023-02-14T06:42:38.014Z,34.33
2023-02-14T06:45:06.006Z,35.17
2023-02-14T06:47:35.014Z,35.42
2023-02-14T06:50:04.829Z,35.83
2023-02-14T06:52:33.098Z,36.08
2023-02-14T06:55:00.034Z,34.15
2023-02-14T06:57:26.883Z,35.25
2023-02-14T06:59:53.738Z,37.15
2023-02-14T07:02:22.323Z,34.33
2023-02-14T07:04:51.307Z,35.40
2023-02-14T07:07:18.092Z,36.17
2023-02-14T07:09:44.849Z,36.78
2023-02-14T07:12:11.725Z,36.20
2023-02-14T07:14:38.567Z,35.50
2023-02-14T07:17:05.488Z,35.92
2023-02-14T07:19:32.391Z,35.65
2023-02-14T07:21:59.161Z,34.60
2023-02-14T07:24:26.555Z,35.00
2023-02-14T07:26:53.418Z,36.70
2023-02-14T07:29:20.273Z,33.70
2023-02-14T07:31:47.325Z,35.20
2023-02-14T07:34:14.160Z,35.30
2023-02-14T07:36:41.516Z,36.05
2023-02-14T07:39:08.458Z,33.30
2023-02-14T07:41:35.275Z,35.60
2023-02-14T07:44:02.113Z,33.35
2023-02-14T07:46:29.232Z,33.05
2023-02-14T07:49:14.679Z,34.20
2023-02-14T07:51:47.892Z,31.90
2023-02-14T07:54:14.834Z,32.50
2023-02-14T07:56:41.842Z,32.05
2023-02-14T07:59:08.631Z,31.80
2023-02-14T08:01:35.378Z,32.17
2023-02-14T08:04:02.341Z,33.22
2023-02-14T08:06:29.212Z,32.15
2023-02-14T08:08:56.134Z,33.42
2023-02-14T08:11:41.936Z,31.67
2023-02-14T08:14:08.895Z,32.20
2023-02-14T08:16:36.054Z,30.45
2023-02-14T08:19:02.959Z,30.80
2023-02-14T08:21:30.204Z,30.27
2023-02-14T08:23:57.420Z,30.48
2023-02-14T08:26:24.603Z,29.42
2023-02-14T08:28:51.403Z,30.90
2023-02-14T08:31:35.208Z,29.77
2023-02-14T08:34:06.152Z,30.73
2023-02-14T08:36:34.250Z,31.00
2023-02-14T08:39:01.711Z,30.67
2023-02-14T08:41:28.557Z,30.00
2023-02-14T08:43:55.649Z,29.65
2023-02-14T08:46:22.988Z,29.35
2023-02-14T08:48:50.384Z,29.20
2023-02-14T08:51:18.558Z,29.27
2023-02-14T08:53:51.079Z,26.88
2023-02-14T08:56:20.198Z,29.23
2023-02-14T08:58:51.369Z,28.65
2023-02-14T09:01:18.441Z,26.70
2023-02-14T09:03:45.340Z,27.30
2023-02-14T09:06:17.020Z,25.83
2023-02-14T09:08:44.882Z,27.23
2023-02-14T09:11:18.835Z,26.55
2023-02-14T09:13:53.377Z,26.98
2023-02-14T09:16:21.828Z,25.38
2023-02-14T09:18:49.813Z,25.70
2023-02-14T09:21:21.642Z,25.20
2023-02-14T09:23:48.700Z,26.25
2023-02-14T09:26:18.537Z,26.52
2023-02-14T09:28:46.415Z,24.77
2023-02-14T09:31:16.408Z,25.13
2023-02-14T09:33:44.627Z,24.42
2023-02-14T09:36:30.229Z,24.55
2023-02-14T09:38:57.047Z,24.45
2023-02-14T09:41:30.021Z,23.83
2023-02-14T09:46:35.144Z,23.67
2023-02-14T09:49:03.318Z,24.85
2023-02-14T09:51:34.351Z,24.00
2023-02-14T09:54:14.314Z,23.73
2023-02-14T09:57:22.246Z,22.73
2023-02-14T10:00:23.299Z,21.90
2023-02-14T10:03:22.054Z,21.92
2023-02-14T10:05:59.789Z,23.30
2023-02-14T10:08:45.105Z,22.02
2023-02-14T10:11:20.808Z,22.42
2023-02-14T10:13:53.895Z,22.02
2023-02-14T10:16:53.265Z,21.17
2023-02-14T10:19:27.542Z,21.80
2023-02-14T10:22:01.133Z,22.00
2023-02-14T10:24:42.165Z,20.75
2023-02-14T10:27:35.272Z,21.75
2023-02-14T10:30:03.726Z,21.77
2023-02-14T10:32:40.060Z,21.38
2023-02-14T10:35:30.771Z,19.85
2023-02-14T10:38:03.848Z,20.05
2023-02-14T10:40:33.740Z,21.65
2023-02-14T10:43:22.472Z,20.08
2023-02-14T10:46:13.804Z,19.70
2023-02-14T10:49:18.059Z,21.70
2023-02-14T10:52:08.310Z,19.95
2023-02-14T10:54:43.049Z,20.95
2023-02-14T10:57:35.814Z,19.80
2023-02-14T11:00:08.533Z,20.00
2023-02-14T11:02:42.879Z,20.08
2023-02-14T11:05:25.183Z,19.52
2023-02-14T11:07:52.056Z,20.93
2023-02-14T11:10:24.257Z,19.27
2023-02-14T11:12:51.417Z,20.40
2023-02-14T11:15:40.792Z,20.02
2023-02-14T11:18:14.185Z,19.83
2023-02-14T11:20:41.055Z,21.67
2023-02-14T11:23:21.875Z,19.38
2023-02-14T11:25:55.716Z,20.02
2023-02-14T11:28:22.963Z,20.30
2023-02-14T11:30:51.806Z,19.80
2023-02-14T11:33:42.850Z,21.17
2023-02-14T11:36:15.343Z,19.98
2023-02-14T11:38:45.443Z,21.05
2023-02-14T11:41:14.930Z,19.98
2023-02-14T11:43:45.257Z,18.70
2023-02-14T11:46:21.163Z,19.67
2023-02-14T11:48:57.812Z,19.40
2023-02-14T11:51:48.638Z,20.83
2023-02-14T11:54:36.730Z,19.50
2023-02-14T11:57:15.346Z,18.02
2023-02-14T11:59:45.827Z,18.17
2023-02-14T12:02:38.896Z,19.60
2023-02-14T12:05:17.482Z,17.92
2023-02-14T12:07:48.764Z,18.83
2023-02-14T12:10:15.760Z,18.63
2023-02-14T12:13:18.925Z,18.40
2023-02-14T12:15:57.536Z,18.58
2023-02-14T12:18:33.187Z,18.83
2023-02-14T12:21:12.819Z,17.55
2023-02-14T12:23:48.689Z,18.35
2023-02-14T12:26:15.499Z,19.52
2023-02-14T12:28:51.213Z,18.98
2023-02-14T12:31:19.418Z,18.80
2023-02-14T12:33:47.557Z,17.42
2023-02-14T12:36:15.168Z,18.40
2023-02-14T12:38:51.357Z,17.77
2023-02-14T12:41:34.635Z,18.65
2023-02-14T12:46:43.302Z,17.65
2023-02-14T12:49:38.081Z,17.65
2023-02-14T12:52:32.521Z,17.05
2023-02-14T12:55:30.324Z,18.25
2023-02-14T12:58:11.012Z,16.73
2023-02-14T13:01:16.296Z,16.65
2023-02-14T13:04:22.780Z,17.15
2023-02-14T13:07:05.531Z,16.70
2023-02-14T13:09:48.035Z,17.17
2023-02-14T13:12:24.369Z,17.88
2023-02-14T13:15:19.960Z,17.65
2023-02-14T13:17:56.459Z,16.80
2023-02-14T13:20:38.348Z,15.45
2023-02-14T13:23:53.685Z,17.38
2023-02-14T13:26:31.306Z,16.58
2023-02-14T13:29:17.542Z,16.50
2023-02-14T13:31:45.384Z,15.70
2023-02-14T13:34:47.077Z,16.30
2023-02-14T13:37:18.910Z,15.45
2023-02-14T13:39:56.466Z,16.33
2023-02-14T13:42:48.290Z,16.77
2023-02-14T13:45:34.967Z,15.15
2023-02-14T13:48:12.578Z,15.77
2023-02-14T13:51:06.885Z,16.25
2023-02-14T13:53:44.739Z,15.32
2023-02-14T13:56:16.998Z,15.23
2023-02-14T13:59:04.536Z,14.90
2023-02-14T14:01:51.827Z,14.90
2023-02-14T14:04:33.312Z,14.98
2023-02-14T14:07:03.313Z,15.80
2023-02-14T14:09:42.569Z,14.00
2023-02-14T14:12:27.870Z,14.00
2023-02-14T14:15:06.979Z,14.30
2023-02-14T14:17:36.843Z,14.05
2023-02-14T14:20:18.819Z,14.85
2023-02-14T14:22:53.332Z,15.18
2023-02-14T14:25:34.861Z,13.60
2023-02-14T14:28:01.865Z,14.57
2023-02-14T14:30:33.079Z,14.07
2023-02-14T14:33:17.064Z,13.40
2023-02-14T14:35:56.176Z,13.70
2023-02-14T14:38:23.389Z,12.90
2023-02-14T14:40:51.413Z,13.07
2023-02-14T14:43:36.427Z,13.63
2023-02-14T14:46:05.218Z,13.27
2023-02-14T14:48:46.214Z,12.60
2023-02-14T14:51:30.047Z,12.73
2023-02-14T14:54:20.455Z,12.88
2023-02-14T14:57:01.544Z,13.25
2023-02-14T14:59:37.502Z,13.07
2023-02-14T15:02:21.193Z,13.50
2023-02-14T15:04:48.214Z,13.77
2023-02-14T15:07:33.438Z,14.68
2023-02-14T15:10:02.299Z,14.00
2023-02-14T15:12:48.565Z,14.25
2023-02-14T15:15:18.862Z,14.75
2023-02-14T15:17:47.860Z,14.07
2023-02-14T15:20:17.575Z,13.73
2023-02-14T15:22:48.281Z,13.13
2023-02-14T15:25:21.530Z,12.88
2023-02-14T15:27:49.301Z,12.65
2023-02-14T15:30:19.540Z,11.68
2023-02-14T15:32:50.709Z,13.65
2023-02-14T15:35:24.160Z,12.82
2023-02-14T15:37:52.267Z,11.82
2023-02-14T15:40:33.058Z,13.15
2023-02-14T15:43:33.383Z,12.13
2023-02-14T15:46:20.982Z,11.75
2023-02-14T15:48:48.599Z,12.77
2023-02-14T15:51:20.045Z,12.27
2023-02-14T15:53:59.610Z,13.73
2023-02-14T15:56:37.672Z,13.63
2023-02-14T15:59:07.903Z,13.48
2023-02-14T16:01:36.461Z,15.00
2023-02-14T16:04:05.821Z,13.80
2023-02-14T16:06:44.523Z,14.23
2023-02-14T16:09:27.820Z,14.70
2023-02-14T16:14:36.696Z,15.10
2023-02-14T16:17:14.120Z,15.50
2023-02-14T16:19:43.497Z,15.45
2023-02-14T16:22:13.178Z,15.02
2023-02-14T16:24:42.065Z,15.80
2023-02-14T16:27:09.251Z,15.15
2023-02-14T16:29:36.647Z,15.90
2023-02-14T16:32:20.152Z,14.73
2023-02-14T16:34:48.243Z,15.68
2023-02-14T16:37:23.672Z,16.65
2023-02-14T16:39:54.344Z,16.02
2023-02-14T16:42:21.417Z,16.27
2023-02-14T16:44:48.407Z,16.92
2023-02-14T16:47:17.375Z,15.70
2023-02-14T16:49:44.548Z,17.83
2023-02-14T16:52:26.551Z,16.80
2023-02-14T16:54:54.074Z,16.33
2023-02-14T16:57:28.121Z,16.67
2023-02-14T16:59:56.645Z,15.98
2023-02-14T17:02:27.405Z,16.92
2023-02-14T17:04:54.754Z,16.17
2023-02-14T17:07:22.448Z,16.33
2023-02-14T17:09:55.163Z,16.58
2023-02-14T17:12:26.880Z,18.67
2023-02-14T17:14:56.745Z,17.00
2023-02-14T17:17:24.093Z,17.63
2023-02-14T17:19:52.740Z,18.70
2023-02-14T17:22:20.208Z,19.02
2023-02-14T17:24:47.030Z,17.42
2023-02-14T17:27:14.088Z,17.15
2023-02-14T17:29:40.948Z,18.33
2023-02-14T17:32:12.696Z,17.83
2023-02-14T17:34:41.001Z,18.27
2023-02-14T17:37:08.042Z,17.05
2023-02-14T17:39:34.979Z,17.98
2023-02-14T17:42:01.939Z,18.75
2023-02-14T17:44:32.450Z,18.23
2023-02-14T17:46:59.971Z,19.67
2023-02-14T17:49:27.217Z,18.35
2023-02-14T17:51:55.000Z,18.35
2023-02-14T17:54:22.504Z,19.30
2023-02-14T17:56:49.903Z,19.13
2023-02-14T17:59:16.735Z,21.15
2023-02-14T18:01:43.947Z,21.58
2023-02-14T18:04:11.134Z,20.17
2023-02-14T18:06:38.612Z,21.35
2023-02-14T18:09:06.697Z,20.77
2023-02-14T18:11:33.594Z,20.90
2023-02-14T18:14:01.775Z,20.23
2023-02-14T18:16:28.819Z,20.70
2023-02-14T18:18:56.193Z,19.70
2023-02-14T18:21:24.598Z,22.13
2023-02-14T18:23:52.048Z,21.73
2023-02-14T18:26:19.594Z,22.15
2023-02-14T18:28:47.000Z,20.33
2023-02-14T18:31:19.276Z,21.50
2023-02-14T18:33:47.684Z,21.15
2023-02-14T18:36:17.295Z,20.33
2023-02-14T18:38:45.782Z,20.95
2023-02-14T18:41:15.918Z,21.73
2023-02-14T18:43:44.672Z,22.25
2023-02-14T18:46:23.642Z,21.67
2023-02-14T18:48:51.299Z,21.95
2023-02-14T18:51:22.898Z,21.38
2023-02-14T18:53:52.349Z,23.10
2023-02-14T18:56:25.393Z,24.25
2023-02-14T18:58:56.838Z,24.67
2023-02-14T19:01:31.965Z,23.95
2023-02-14T19:04:01.945Z,25.35
2023-02-14T19:06:31.283Z,24.95
2023-02-14T19:08:58.358Z,24.58
2023-02-14T19:11:31.696Z,25.30
2023-02-14T19:14:00.853Z,24.10
2023-02-14T19:16:33.850Z,24.48
2023-02-14T19:19:02.969Z,24.92
2023-02-14T19:21:40.819Z,25.55
2023-02-14T19:24:08.705Z,24.92
2023-02-14T19:26:40.013Z,24.65
2023-02-14T19:29:18.664Z,25.45
2023-02-14T19:31:49.654Z,26.10
2023-02-14T19:34:20.026Z,24.20
2023-02-14T19:36:48.047Z,26.33
2023-02-14T19:39:16.197Z,25.55
2023-02-14T19:41:43.734Z,26.33
2023-02-14T19:44:13.875Z,25.48
2023-02-14T19:46:42.653Z,25.40
2023-02-14T19:49:14.505Z,26.75
2023-02-14T19:51:50.959Z,27.88
2023-02-14T19:54:19.005Z,26.45
2023-02-14T19:56:47.373Z,26.63
2023-02-14T19:59:20.009Z,25.92
2023-02-14T20:01:50.307Z,26.98
2023-02-14T20:04:24.474Z,25.23
2023-02-14T20:06:53.395Z,26.08
2023-02-14T20:09:24.405Z,29.92
2023-02-14T20:11:56.481Z,28.05
2023-02-14T20:14:43.678Z,26.45
2023-02-14T20:17:17.298Z,26.52
2023-02-14T20:19:44.338Z,26.70
2023-02-14T20:22:11.268Z,25.75
2023-02-14T20:24:38.408Z,26.13
2023-02-14T20:27:05.437Z,28.00
2023-02-14T20:29:33.228Z,25.60
2023-02-14T20:32:03.993Z,28.08
2023-02-14T20:34:31.287Z,26.85
2023-02-14T20:36:59.347Z,27.80
2023-02-14T20:39:34.018Z,27.10
2023-02-14T20:42:01.769Z,25.98
2023-02-14T20:44:29.518Z,26.30
2023-02-14T20:46:57.106Z,26.90
2023-02-14T20:49:26.057Z,26.73
2023-02-14T20:51:53.399Z,29.55
2023-02-14T20:54:23.355Z,27.65
2023-02-14T20:56:50.886Z,29.45
2023-02-14T20:59:28.236Z,28.50
2023-02-14T21:01:56.380Z,27.85
2023-02-14T21:04:23.514Z,29.20
2023-02-14T21:06:57.807Z,28.88
2023-02-14T21:09:24.820Z,30.25
2023-02-14T21:11:53.932Z,28.33
2023-02-14T21:14:20.989Z,28.77
2023-02-14T21:16:47.943Z,32.40
2023-02-14T21:19:14.880Z,28.98
2023-02-14T21:21:41.959Z,30.80
2023-02-14T21:24:11.619Z,31.90
2023-02-14T21:26:39.180Z,31.35
2023-02-14T21:29:06.600Z,30.75
2023-02-14T21:31:34.432Z,30.73
2023-02-14T21:34:02.867Z,32.35
2023-02-14T21:36:32.769Z,32.17
2023-02-14T21:39:00.130Z,33.03
2023-02-14T21:41:30.213Z,36.47
2023-02-14T21:43:58.787Z,34.67
2023-02-14T21:46:31.681Z,33.40
2023-02-14T21:49:22.393Z,36.58
2023-02-14T21:51:50.185Z,33.40
2023-02-14T21:54:17.590Z,34.63
2023-02-14T21:56:45.174Z,34.80
2023-02-14T21:59:12.255Z,35.30
2023-02-14T22:01:41.230Z,36.50
2023-02-14T22:04:09.740Z,33.85
2023-02-14T22:06:38.921Z,32.90
2023-02-14T22:09:06.862Z,33.80
2023-02-14T22:11:34.642Z,33.50
2023-02-14T22:14:01.994Z,34.95
2023-02-14T22:16:28.856Z,38.08
2023-02-14T22:18:55.600Z,37.97
2023-02-14T22:21:25.170Z,35.85
2023-02-14T22:23:52.048Z,37.88
2023-02-14T22:26:26.286Z,38.70
2023-02-14T22:28:59.058Z,35.85
2023-02-14T22:33:54.678Z,35.83
2023-02-14T22:36:22.201Z,37.55
2023-02-14T22:38:49.273Z,36.88
2023-02-14T22:41:21.910Z,36.95
2023-02-14T22:43:48.985Z,36.92
2023-02-14T22:46:19.852Z,36.90
2023-02-14T22:48:48.148Z,36.30
2023-02-14T22:51:20.566Z,37.50
2023-02-14T22:53:48.184Z,38.75
2023-02-14T22:56:16.892Z,38.40
2023-02-14T22:58:44.394Z,36.67
2023-02-14T23:01:17.357Z,36.35
2023-02-14T23:03:45.287Z,34.85
2023-02-14T23:06:13.455Z,36.85
2023-02-14T23:08:42.437Z,37.30
2023-02-14T23:11:12.007Z,36.45
2023-02-14T23:13:57.491Z,37.17
2023-02-14T23:16:45.671Z,36.85
2023-02-14T23:19:39.440Z,34.85
2023-02-14T23:22:15.365Z,35.80
2023-02-14T23:24:42.846Z,36.58
2023-02-14T23:27:10.147Z,36.30
2023-02-14T23:29:37.639Z,36.30
2023-02-14T23:32:06.045Z,36.92
2023-02-14T23:34:35.367Z,35.38
2023-02-14T23:37:02.226Z,35.08
2023-02-14T23:39:29.314Z,36.50
2023-02-14T23:41:56.150Z,36.75
2023-02-14T23:44:25.473Z,37.60
2023-02-14T23:46:57.377Z,37.97
2023-02-14T23:49:25.442Z,38.47
2023-02-14T23:51:54.074Z,35.85
2023-02-14T23:54:22.064Z,35.65
2023-02-14T23:56:49.442Z,37.05
2023-02-14T23:59:17.055Z,35.55
